Startpagina
METAR-TAF:

METAR-TAF

Vliegvelden :

Sint-Petersburg, Rusland

Luchthaven Poelkovo

breedte: 59-58N, lengte: 030-18E, hoogte: 4 m

Actueel weer

Dit bericht is 15 minuten geleden gemaakt, om 15:00 UTC
Wind 8 kt uit het oostzuidoosten
Temperatuur 14°C
Vochtigheid 72%
Druk 1029 hPa
Zicht 10 km of meer
Weinig wolken op 4000 ft

METAR: ULLI 221500Z 11004MPS 9999 FEW040 14/09 Q1029 R10R/190055 R10L/090060 NOSIG

Tijdstip: 18:15 (15:15 UTC)

Verwachting

Dit bericht is 1 uur en het 17 minuten geleden gemaakt, om 13:58 UTC
Verwachting geldig van 22 om 15 UTC tot 23 om 15 UTC
Wind 12 kt uit het oosten met uitschieters tot 21 kt
Zicht 10 km of meer
Verspreide wolken op 2000 ft
Wijzigt naar
van 22 om 18 UTC tot 22 om 20 UTC
Wind 6 kt uit het oostzuidoosten met uitschieters tot 16 kt
Tijdelijke
van 22 om 22 UTC tot 23 om 05 UTC
Zicht: 3100 m
Verspreide wolken op 1100 ft
nevel

TAF: ULLI 221358Z 2215/2315 10006G11MPS 9999 SCT020 BECMG 2218/2220 11003G08MPS TEMPO 2222/2305 3100 BR SCT011

Waarnemingen en weersverwachtingen van meer dan 4000 vliegvelden (METAR en TAF).

De beschikbare stations zijn de gele en rode punten op de kaart.

Ga met uw muis naar het station om de naam te zien.

Klik dan om waarnemingen en weersverwachtingen te zien.

kaart wijzigen: klik op de groene knoppen met een zwart kruis om in te zoomen, op de groene knop met een streepje om uit te zoomen of op de groene pijlen voor aangrenzende kaarten.


METAR-TAF: